createdAt,value
2018-02-08T00:09:37.239Z,0.30
2018-02-08T00:19:38.781Z,0.40
2018-02-08T00:29:41.054Z,0.60
2018-02-08T00:39:42.570Z,0.60
2018-02-08T00:49:44.282Z,0.50
2018-02-08T00:59:45.790Z,0.60
2018-02-08T01:09:48.163Z,0.40
2018-02-08T01:19:49.704Z,0.40
2018-02-08T01:29:51.244Z,0.40
2018-02-08T01:39:52.769Z,0.50
2018-02-08T01:49:54.383Z,0.60
2018-02-08T01:59:56.013Z,0.50
2018-02-08T02:09:58.367Z,0.80
2018-02-08T02:19:59.972Z,0.70
2018-02-08T02:30:01.486Z,0.80
2018-02-08T02:40:03.035Z,0.90
2018-02-08T02:50:04.571Z,0.70
2018-02-08T03:00:06.098Z,0.60
2018-02-08T03:10:07.692Z,0.70
2018-02-08T03:20:09.221Z,0.50
2018-02-08T03:30:11.503Z,0.30
2018-02-08T03:40:13.021Z,0.20
2018-02-08T03:50:14.519Z,0.00
2018-02-08T04:00:16.036Z,-0.20
2018-02-08T04:10:18.278Z,-0.80
2018-02-08T04:20:19.881Z,-0.90
2018-02-08T04:30:21.411Z,-1.10
2018-02-08T04:40:41.544Z,-1.10
2018-02-08T04:50:43.260Z,-1.20
2018-02-08T05:00:44.790Z,-1.20
2018-02-08T05:10:46.347Z,-1.30
2018-02-08T05:20:47.908Z,-1.40
2018-02-08T05:30:49.461Z,-1.40
2018-02-08T05:40:51.107Z,-1.30
2018-02-08T05:50:52.621Z,-1.40
2018-02-08T06:00:54.150Z,-1.50
2018-02-08T06:10:56.120Z,-1.70
2018-02-08T06:20:57.663Z,-1.70
2018-02-08T06:30:59.365Z,-1.70
2018-02-08T06:41:01.035Z,-1.70
2018-02-08T06:51:02.549Z,-1.60
2018-02-08T07:01:04.066Z,-1.70
2018-02-08T07:11:05.630Z,-1.70
2018-02-08T07:21:07.218Z,-1.70
2018-02-08T07:31:08.804Z,-1.50
2018-02-08T07:41:10.341Z,-1.20
2018-02-08T07:51:11.901Z,-0.60
2018-02-08T08:01:13.449Z,-0.20
2018-02-08T08:11:15.006Z,0.10
2018-02-08T08:21:16.651Z,0.80
2018-02-08T08:31:18.200Z,1.50
2018-02-08T08:41:19.720Z,2.00
2018-02-08T08:51:21.296Z,2.30
2018-02-08T09:01:23.015Z,2.60
2018-02-08T09:11:24.573Z,2.30
2018-02-08T09:21:26.877Z,1.70
2018-02-08T09:31:28.489Z,1.70
2018-02-08T09:41:30.844Z,1.50
2018-02-08T09:51:32.405Z,1.40
2018-02-08T10:01:34.677Z,1.90
2018-02-08T10:11:36.190Z,1.80
2018-02-08T10:21:37.722Z,2.20
2018-02-08T10:31:40.117Z,2.90
2018-02-08T10:41:41.716Z,2.80
2018-02-08T10:51:43.262Z,2.80
2018-02-08T11:01:44.795Z,2.90
2018-02-08T11:11:46.312Z,3.40
2018-02-08T11:21:47.867Z,3.00
2018-02-08T11:31:49.407Z,2.30
2018-02-08T11:41:57.975Z,2.30
2018-02-08T11:51:59.611Z,2.60
2018-02-08T12:02:02.023Z,3.10
2018-02-08T12:12:04.275Z,3.40
2018-02-08T12:22:06.008Z,3.30
2018-02-08T12:32:07.759Z,3.40
2018-02-08T12:42:09.400Z,3.40
2018-02-08T12:52:10.944Z,3.50
2018-02-08T13:02:13.220Z,3.60
2018-02-08T13:12:14.769Z,3.60
2018-02-08T13:22:16.342Z,3.40
2018-02-08T13:32:17.924Z,3.30
2018-02-08T13:42:19.508Z,3.20
2018-02-08T14:13:12.768Z,3.60
2018-02-08T14:23:14.308Z,3.50
2018-02-08T14:33:15.961Z,3.30
2018-02-08T14:43:17.524Z,3.40
2018-02-08T14:53:19.111Z,2.90
2018-02-08T15:03:20.641Z,2.90
2018-02-08T15:13:22.206Z,2.60
2018-02-08T15:23:23.969Z,2.50
2018-02-08T15:33:25.500Z,2.20
2018-02-08T15:43:27.885Z,1.90
2018-02-08T15:53:30.759Z,1.80
2018-02-08T16:03:35.389Z,1.50
2018-02-08T16:13:37.179Z,1.10
2018-02-08T16:23:39.529Z,0.40
2018-02-08T16:33:41.852Z,0.20
2018-02-08T16:43:44.137Z,0.00
2018-02-08T16:53:45.717Z,-0.10
2018-02-08T17:03:47.280Z,-0.10
2018-02-08T17:13:48.818Z,-0.20
2018-02-08T17:23:50.358Z,-0.40
2018-02-08T17:33:51.915Z,-0.40
2018-02-08T17:43:53.516Z,-0.50
2018-02-08T17:53:55.210Z,-0.60
2018-02-08T18:03:56.743Z,-0.60
2018-02-08T18:13:58.324Z,-0.70
2018-02-08T18:23:59.793Z,-0.70
2018-02-08T18:34:01.510Z,-0.80
2018-02-08T18:44:03.076Z,-0.90
2018-02-08T18:54:05.384Z,-1.10
2018-02-08T19:04:06.964Z,-1.20
2018-02-08T19:14:09.424Z,-1.20
2018-02-08T19:24:11.420Z,-1.20
2018-02-08T19:34:13.713Z,-1.30
2018-02-08T19:44:15.376Z,-1.40
2018-02-08T19:54:16.987Z,-1.30
2018-02-08T20:04:18.674Z,-1.50
2018-02-08T20:14:26.491Z,-1.50
2018-02-08T20:24:28.766Z,-1.70
2018-02-08T20:34:30.389Z,-1.70
2018-02-08T20:44:31.952Z,-1.80
2018-02-08T20:54:33.566Z,-1.80
2018-02-08T21:04:35.150Z,-2.00
2018-02-08T21:14:36.729Z,-2.00
2018-02-08T21:24:38.262Z,-2.10
2018-02-08T21:34:39.838Z,-2.00
2018-02-08T21:44:41.314Z,-2.10
2018-02-08T21:54:43.599Z,-2.20
2018-02-08T22:04:45.164Z,-2.30
2018-02-08T22:14:46.725Z,-2.40
2018-02-08T22:24:48.963Z,-2.50
2018-02-08T22:34:50.500Z,-2.60
2018-02-08T22:44:52.049Z,-2.60
2018-02-08T22:54:54.342Z,-2.70
2018-02-08T23:04:56.004Z,-2.80
2018-02-08T23:14:57.528Z,-2.90
2018-02-08T23:24:59.028Z,-2.90
2018-02-08T23:35:00.560Z,-3.00
2018-02-08T23:45:02.872Z,-3.20
2018-02-08T23:55:04.391Z,-3.20
